Time;durP1;ratioP1;P1;durP2;ratioP2;P2;SDS_P1;SDS_P2;PMS_P1;PMS_P2;Temp;Humidity;BMP_temperature;BMP_pressure;BME280_temperature;BME280_humidity;BME280_pressure;Samples;Min_cycle;Max_cycle;Signal;HPM_P1;HPM_P2
2023/08/07 00:00:09;;;;;;;4.88;2.40;;;;;;;;;;5038414;28;21269;-73
2023/08/07 00:02:35;;;;;;;4.38;2.13;;;;;;;;;;5037644;28;20510;-74
2023/08/07 00:05:02;;;;;;;5.88;2.42;;;;;;;;;;5039178;28;20083;-73
2023/08/07 00:07:28;;;;;;;3.78;2.00;;;;;;;;;;5039146;28;20143;-73
2023/08/07 00:09:54;;;;;;;6.72;2.80;;;;;;;;;;5037752;28;20119;-74
2023/08/07 00:12:20;;;;;;;3.42;2.58;;;;;;;;;;5039700;28;20494;-73
2023/08/07 00:14:48;;;;;;;5.03;2.10;;;;;;;;;;5053588;28;20123;-74
2023/08/07 00:17:14;;;;;;;4.75;2.17;;;;;;;;;;5055256;28;20025;-74
2023/08/07 00:19:40;;;;;;;3.90;2.00;;;;;;;;;;5036761;28;20119;-74
2023/08/07 00:22:06;;;;;;;5.28;2.35;;;;;;;;;;5037571;28;20036;-74
2023/08/07 00:24:32;;;;;;;5.80;2.33;;;;;;;;;;5038239;28;20107;-73
2023/08/07 00:26:58;;;;;;;5.03;2.17;;;;;;;;;;5051600;28;20060;-73
2023/08/07 00:29:24;;;;;;;2.53;2.28;;;;;;;;;;5033093;28;20642;-73
2023/08/07 00:31:51;;;;;;;6.05;2.20;;;;;;;;;;5039418;28;20689;-74
2023/08/07 00:34:17;;;;;;;2.90;2.40;;;;;;;;;;5036498;28;20039;-73
2023/08/07 00:36:43;;;;;;;6.60;3.45;;;;;;;;;;5040142;28;20033;-74
2023/08/07 00:39:09;;;;;;;3.95;2.25;;;;;;;;;;5039084;28;20025;-73
2023/08/07 00:41:35;;;;;;;3.60;2.20;;;;;;;;;;5055786;28;20136;-74
2023/08/07 00:44:01;;;;;;;3.78;2.30;;;;;;;;;;5049947;28;20032;-74
2023/08/07 00:46:28;;;;;;;2.97;2.28;;;;;;;;;;5037489;28;20041;-73
2023/08/07 00:48:54;;;;;;;5.15;2.58;;;;;;;;;;5038245;28;20029;-74
2023/08/07 00:51:21;;;;;;;6.45;2.75;;;;;;;;;;5039631;28;20147;-74
2023/08/07 00:53:48;;;;;;;3.38;2.17;;;;;;;;;;5036614;28;20039;-74
2023/08/07 00:56:17;;;;;;;3.70;2.40;;;;;;;;;;5035082;28;20589;-74
2023/08/07 00:58:44;;;;;;;4.75;2.28;;;;;;;;;;5038200;28;20255;-74
2023/08/07 01:01:10;;;;;;;4.80;2.55;;;;;;;;;;5035589;28;20646;-74
2023/08/07 01:03:36;;;;;;;6.20;2.55;;;;;;;;;;5036632;28;20108;-73
2023/08/07 01:06:03;;;;;;;6.95;2.65;;;;;;;;;;5037767;28;20058;-75
2023/08/07 01:08:29;;;;;;;6.32;2.50;;;;;;;;;;5050182;28;20040;-74
2023/08/07 01:11:07;;;;;;;7.22;2.30;;;;;;;;;;5036569;28;20056;-73
2023/08/07 01:13:55;;;;;;;4.03;2.50;;;;;;;;;;5039353;28;20046;-74
2023/08/07 01:16:29;;;;;;;4.10;2.30;;;;;;;;;;5019788;28;20032;-73
2023/08/07 01:18:56;;;;;;;5.78;2.20;;;;;;;;;;5038585;28;20510;-74
2023/08/07 01:21:22;;;;;;;4.20;2.97;;;;;;;;;;5030941;28;20072;-73
2023/08/07 01:23:51;;;;;;;2.78;2.17;;;;;;;;;;5037204;28;20840;-74
2023/08/07 01:26:20;;;;;;;4.93;3.67;;;;;;;;;;5035965;28;20485;-74
2023/08/07 01:29:06;;;;;;;4.65;2.35;;;;;;;;;;5041952;28;20573;-73
2023/08/07 01:31:34;;;;;;;5.30;2.30;;;;;;;;;;5033862;28;20033;-74
2023/08/07 01:34:03;;;;;;;6.07;2.60;;;;;;;;;;5054268;28;20080;-74
2023/08/07 01:36:30;;;;;;;3.42;2.97;;;;;;;;;;5039470;28;20043;-73
2023/08/07 01:38:57;;;;;;;5.93;2.63;;;;;;;;;;5058150;28;20032;-74
2023/08/07 01:41:25;;;;;;;3.25;2.60;;;;;;;;;;5057454;28;20118;-74
2023/08/07 01:43:51;;;;;;;3.10;2.28;;;;;;;;;;5075067;28;20404;-73
2023/08/07 01:46:18;;;;;;;5.97;2.90;;;;;;;;;;5051093;28;20114;-74
2023/08/07 01:48:44;;;;;;;5.95;2.83;;;;;;;;;;5061903;28;20089;-73
2023/08/07 01:51:10;;;;;;;4.45;2.85;;;;;;;;;;5057059;28;20024;-73
2023/08/07 01:53:36;;;;;;;5.53;2.83;;;;;;;;;;5059950;28;20021;-73
2023/08/07 01:56:02;;;;;;;5.55;2.92;;;;;;;;;;5049447;28;20025;-73
2023/08/07 01:58:28;;;;;;;3.80;2.58;;;;;;;;;;5063509;28;20044;-74
2023/08/07 02:00:55;;;;;;;3.22;2.60;;;;;;;;;;5058026;28;20036;-73
2023/08/07 02:03:21;;;;;;;4.32;2.60;;;;;;;;;;5064583;28;20352;-74
2023/08/07 02:05:47;;;;;;;7.13;2.50;;;;;;;;;;5050809;28;20043;-74
2023/08/07 02:08:13;;;;;;;5.88;3.22;;;;;;;;;;5076265;28;20110;-72
2023/08/07 02:10:39;;;;;;;3.97;2.67;;;;;;;;;;5059291;28;20104;-73
2023/08/07 02:13:06;;;;;;;3.72;2.40;;;;;;;;;;5060729;28;20026;-74
2023/08/07 02:15:32;;;;;;;4.57;2.30;;;;;;;;;;5060371;28;20025;-73
2023/08/07 02:17:58;;;;;;;9.18;2.78;;;;;;;;;;5062884;28;20036;-73
2023/08/07 02:20:24;;;;;;;4.95;3.42;;;;;;;;;;5068017;28;20032;-73
2023/08/07 02:22:50;;;;;;;3.97;2.40;;;;;;;;;;5054348;28;20081;-77
2023/08/07 02:25:16;;;;;;;4.38;2.58;;;;;;;;;;5052076;28;20044;-75
2023/08/07 02:27:43;;;;;;;3.70;2.50;;;;;;;;;;5070510;28;20052;-73
2023/08/07 02:30:09;;;;;;;6.10;2.90;;;;;;;;;;5062059;28;20036;-74
2023/08/07 02:32:35;;;;;;;6.72;2.67;;;;;;;;;;5064518;28;20032;-74
2023/08/07 02:35:01;;;;;;;4.70;2.58;;;;;;;;;;5064207;28;20238;-74
2023/08/07 02:37:28;;;;;;;6.47;2.45;;;;;;;;;;5053098;28;20054;-73
2023/08/07 02:39:56;;;;;;;5.22;2.70;;;;;;;;;;5057480;28;20460;-73
2023/08/07 02:42:23;;;;;;;4.70;2.50;;;;;;;;;;5051763;28;20041;-73
2023/08/07 02:44:49;;;;;;;7.60;2.78;;;;;;;;;;5063309;28;20112;-74
2023/08/07 02:47:15;;;;;;;7.22;2.90;;;;;;;;;;5065832;28;20036;-73
2023/08/07 02:49:41;;;;;;;5.93;2.50;;;;;;;;;;5053349;28;20479;-74
2023/08/07 02:52:07;;;;;;;3.97;2.65;;;;;;;;;;5064615;28;20029;-74
2023/08/07 02:54:33;;;;;;;5.78;2.50;;;;;;;;;;5056922;28;20392;-74
2023/08/07 02:56:59;;;;;;;5.60;2.42;;;;;;;;;;5061269;28;20016;-73
2023/08/07 02:59:26;;;;;;;7.53;2.50;;;;;;;;;;5062045;28;20032;-74
2023/08/07 03:01:52;;;;;;;5.40;3.90;;;;;;;;;;5072661;28;20120;-74
2023/08/07 03:04:18;;;;;;;7.03;2.70;;;;;;;;;;5062488;28;20040;-74
2023/08/07 03:06:44;;;;;;;6.80;2.80;;;;;;;;;;5067953;28;20073;-74
2023/08/07 03:09:10;;;;;;;4.28;3.05;;;;;;;;;;5067369;28;20038;-74
2023/08/07 03:11:36;;;;;;;4.45;2.38;;;;;;;;;;5060479;28;20017;-73
2023/08/07 03:14:03;;;;;;;4.13;2.28;;;;;;;;;;5050323;28;20025;-73
2023/08/07 03:16:29;;;;;;;4.07;2.38;;;;;;;;;;5064631;28;20031;-73
2023/08/07 03:18:55;;;;;;;4.93;2.83;;;;;;;;;;5065072;28;20703;-73
2023/08/07 03:21:21;;;;;;;5.63;2.65;;;;;;;;;;5068738;28;20400;-73
2023/08/07 03:23:47;;;;;;;4.60;2.83;;;;;;;;;;5062210;28;20023;-73
2023/08/07 03:26:14;;;;;;;6.88;2.53;;;;;;;;;;5054511;28;20368;-73
2023/08/07 03:28:40;;;;;;;6.00;2.30;;;;;;;;;;5062994;28;20378;-74
2023/08/07 03:31:06;;;;;;;4.20;2.33;;;;;;;;;;5049726;28;20028;-73
2023/08/07 03:33:32;;;;;;;3.95;2.28;;;;;;;;;;5051217;28;20108;-73
2023/08/07 03:35:59;;;;;;;4.20;2.50;;;;;;;;;;5061390;28;20051;-73
2023/08/07 03:38:25;;;;;;;4.25;2.63;;;;;;;;;;5062926;28;20082;-73
2023/08/07 03:40:51;;;;;;;3.05;2.08;;;;;;;;;;5042761;28;20459;-72
2023/08/07 03:43:17;;;;;;;2.92;2.10;;;;;;;;;;5063210;28;20035;-73
2023/08/07 03:45:44;;;;;;;2.72;1.92;;;;;;;;;;5063930;28;20086;-72
2023/08/07 03:48:10;;;;;;;3.22;2.20;;;;;;;;;;5056231;28;20132;-74
2023/08/07 03:50:39;;;;;;;3.67;2.72;;;;;;;;;;5052628;28;20025;-73
2023/08/07 03:53:07;;;;;;;3.78;2.20;;;;;;;;;;5055674;28;20032;-74
2023/08/07 03:55:35;;;;;;;4.07;2.20;;;;;;;;;;5047083;28;20486;-73
2023/08/07 03:58:01;;;;;;;4.78;2.50;;;;;;;;;;5061327;28;20111;-73
2023/08/07 04:00:27;;;;;;;6.50;2.75;;;;;;;;;;5062399;28;20043;-73
2023/08/07 04:02:56;;;;;;;6.28;3.05;;;;;;;;;;5056776;28;20375;-73
2023/08/07 04:05:23;;;;;;;6.03;2.70;;;;;;;;;;5054644;28;20122;-73
2023/08/07 04:07:49;;;;;;;5.80;2.50;;;;;;;;;;5063670;28;20024;-74
2023/08/07 04:10:15;;;;;;;4.07;2.20;;;;;;;;;;5058482;28;20056;-73
2023/08/07 04:12:41;;;;;;;4.80;2.40;;;;;;;;;;5058502;28;20065;-73
2023/08/07 04:15:08;;;;;;;4.43;2.63;;;;;;;;;;5052759;28;20032;-73
2023/08/07 04:17:35;;;;;;;3.30;2.30;;;;;;;;;;5061030;28;21552;-74
2023/08/07 04:20:01;;;;;;;2.65;2.20;;;;;;;;;;5063743;28;20280;-73
2023/08/07 04:22:28;;;;;;;2.90;2.20;;;;;;;;;;5054025;28;20107;-73
2023/08/07 04:24:54;;;;;;;3.50;2.30;;;;;;;;;;5059746;28;20310;-73
2023/08/07 04:27:20;;;;;;;3.67;2.47;;;;;;;;;;5056210;28;20043;-73
2023/08/07 04:29:47;;;;;;;8.10;3.10;;;;;;;;;;5052510;28;20112;-73
2023/08/07 04:32:13;;;;;;;3.58;2.35;;;;;;;;;;5060621;28;20153;-74
2023/08/07 04:34:39;;;;;;;3.65;2.30;;;;;;;;;;5053632;28;20412;-74
2023/08/07 04:37:06;;;;;;;4.53;2.10;;;;;;;;;;5061772;28;20115;-74
2023/08/07 04:39:32;;;;;;;3.80;2.40;;;;;;;;;;5061240;28;20115;-74
2023/08/07 04:41:58;;;;;;;3.72;2.53;;;;;;;;;;5050278;28;20033;-74
2023/08/07 04:44:24;;;;;;;3.55;2.00;;;;;;;;;;5060793;28;20064;-74
2023/08/07 04:46:52;;;;;;;5.97;2.40;;;;;;;;;;5063618;28;20096;-76
2023/08/07 04:49:18;;;;;;;4.35;2.17;;;;;;;;;;5063361;28;20024;-76
2023/08/07 04:51:44;;;;;;;5.95;2.38;;;;;;;;;;5057740;28;20750;-73
2023/08/07 04:54:10;;;;;;;2.92;2.38;;;;;;;;;;5056285;28;20095;-76
2023/08/07 04:56:37;;;;;;;3.40;2.30;;;;;;;;;;5048949;28;20089;-76
2023/08/07 04:59:03;;;;;;;3.85;2.47;;;;;;;;;;5053433;28;20028;-74
2023/08/07 05:01:29;;;;;;;7.60;2.50;;;;;;;;;;5068146;28;20044;-74
2023/08/07 05:03:55;;;;;;;3.83;3.00;;;;;;;;;;5053201;28;20021;-75
2023/08/07 05:06:21;;;;;;;3.67;2.00;;;;;;;;;;5055511;28;20084;-74
2023/08/07 05:08:47;;;;;;;4.70;2.30;;;;;;;;;;5074746;28;20028;-74
2023/08/07 05:11:13;;;;;;;3.20;2.03;;;;;;;;;;5056201;28;20028;-74
2023/08/07 05:13:39;;;;;;;7.07;2.72;;;;;;;;;;5054512;28;20031;-74
2023/08/07 05:16:05;;;;;;;4.15;1.90;;;;;;;;;;5058768;28;20032;-75
2023/08/07 05:18:32;;;;;;;5.22;2.40;;;;;;;;;;5063448;28;20050;-74
2023/08/07 05:20:58;;;;;;;2.50;2.10;;;;;;;;;;5061069;28;20024;-74
2023/08/07 05:23:24;;;;;;;5.18;2.08;;;;;;;;;;5058948;28;20040;-73
2023/08/07 05:25:50;;;;;;;2.50;2.20;;;;;;;;;;5044824;28;20025;-74
2023/08/07 05:28:16;;;;;;;2.72;2.30;;;;;;;;;;5051262;28;20033;-73
2023/08/07 05:30:42;;;;;;;3.03;2.00;;;;;;;;;;5046960;28;20061;-74
2023/08/07 05:33:09;;;;;;;2.30;2.10;;;;;;;;;;5054882;28;20029;-73
2023/08/07 05:35:35;;;;;;;3.25;2.70;;;;;;;;;;5058558;28;20045;-74
2023/08/07 05:38:01;;;;;;;4.55;2.38;;;;;;;;;;5057548;28;20024;-74
2023/08/07 05:40:27;;;;;;;5.85;2.30;;;;;;;;;;5058649;28;20032;-73
2023/08/07 05:42:53;;;;;;;3.83;2.17;;;;;;;;;;5055511;28;20488;-73
2023/08/07 05:45:19;;;;;;;4.72;2.80;;;;;;;;;;5065728;28;20111;-74
2023/08/07 05:47:45;;;;;;;2.75;2.20;;;;;;;;;;5056670;28;20029;-73
2023/08/07 05:50:12;;;;;;;2.95;2.28;;;;;;;;;;5066603;28;20024;-74
2023/08/07 05:52:38;;;;;;;3.10;2.20;;;;;;;;;;5069445;28;20029;-73
2023/08/07 05:55:04;;;;;;;3.03;2.50;;;;;;;;;;5059677;28;20461;-74
2023/08/07 05:57:30;;;;;;;3.67;2.67;;;;;;;;;;5059783;28;20028;-73
2023/08/07 05:59:56;;;;;;;7.93;2.60;;;;;;;;;;5052561;28;20477;-74
2023/08/07 06:02:22;;;;;;;5.50;2.60;;;;;;;;;;5060357;28;20414;-73
2023/08/07 06:04:49;;;;;;;3.58;2.08;;;;;;;;;;5068116;28;20039;-73
2023/08/07 06:07:15;;;;;;;2.95;2.10;;;;;;;;;;5050442;28;20029;-73
2023/08/07 06:09:41;;;;;;;2.50;2.20;;;;;;;;;;5062074;28;20806;-73
2023/08/07 06:12:07;;;;;;;6.05;2.20;;;;;;;;;;5053130;28;20615;-73
2023/08/07 06:14:33;;;;;;;3.20;2.28;;;;;;;;;;5058953;28;20021;-73
2023/08/07 06:17:01;;;;;;;3.88;2.10;;;;;;;;;;5046878;28;20029;-73
2023/08/07 06:19:28;;;;;;;5.65;2.45;;;;;;;;;;5050420;28;20040;-72
2023/08/07 06:21:54;;;;;;;5.72;2.35;;;;;;;;;;5052849;28;20036;-73
2023/08/07 06:24:20;;;;;;;5.35;2.28;;;;;;;;;;5057789;28;20025;-73
2023/08/07 06:26:46;;;;;;;3.95;2.30;;;;;;;;;;5050369;28;20116;-73
2023/08/07 06:29:12;;;;;;;4.03;2.38;;;;;;;;;;5049892;28;20064;-73
2023/08/07 06:31:39;;;;;;;3.30;2.42;;;;;;;;;;5049563;28;20024;-73
2023/08/07 06:34:05;;;;;;;2.75;2.00;;;;;;;;;;5047071;28;20541;-72
2023/08/07 06:36:31;;;;;;;3.92;2.30;;;;;;;;;;5062501;28;20441;-73
2023/08/07 06:39:00;;;;;;;3.78;2.55;;;;;;;;;;5057003;28;20068;-72
2023/08/07 06:41:26;;;;;;;4.63;2.10;;;;;;;;;;5059583;28;20028;-73
2023/08/07 06:43:52;;;;;;;7.20;2.78;;;;;;;;;;5044875;28;20444;-74
2023/08/07 06:46:24;;;;;;;3.58;1.90;;;;;;;;;;5059223;28;20032;-74
2023/08/07 06:48:50;;;;;;;6.57;2.20;;;;;;;;;;5056375;28;20036;-73
2023/08/07 06:51:16;;;;;;;4.57;2.08;;;;;;;;;;5053208;28;20067;-73
2023/08/07 06:53:42;;;;;;;2.83;1.77;;;;;;;;;;5054338;28;20637;-73
2023/08/07 06:56:09;;;;;;;3.33;1.95;;;;;;;;;;5051931;28;20266;-73
2023/08/07 06:58:35;;;;;;;3.42;1.90;;;;;;;;;;5055051;28;20090;-73
2023/08/07 07:01:01;;;;;;;3.88;2.40;;;;;;;;;;5055085;28;20025;-74
2023/08/07 07:03:27;;;;;;;5.00;2.10;;;;;;;;;;5075489;28;20491;-74
2023/08/07 07:05:53;;;;;;;3.58;2.47;;;;;;;;;;5061436;28;20079;-73
2023/08/07 07:08:19;;;;;;;2.95;2.10;;;;;;;;;;5055185;28;20408;-73
2023/08/07 07:10:45;;;;;;;3.15;2.03;;;;;;;;;;5056860;28;20087;-73
2023/08/07 07:13:11;;;;;;;3.70;1.95;;;;;;;;;;5047432;28;20487;-73
2023/08/07 07:15:37;;;;;;;3.80;2.20;;;;;;;;;;5045572;28;20491;-73
2023/08/07 07:18:03;;;;;;;4.20;2.30;;;;;;;;;;5047638;28;20020;-74
2023/08/07 07:20:29;;;;;;;2.17;1.98;;;;;;;;;;5044568;28;20028;-74
2023/08/07 07:22:56;;;;;;;3.90;2.17;;;;;;;;;;5063177;28;20416;-73
2023/08/07 07:25:22;;;;;;;3.75;2.33;;;;;;;;;;5047195;28;20610;-73
2023/08/07 07:27:48;;;;;;;2.95;1.90;;;;;;;;;;5058457;28;20486;-73
2023/08/07 07:30:14;;;;;;;3.88;2.10;;;;;;;;;;5059223;28;20032;-74
2023/08/07 07:32:41;;;;;;;5.72;2.40;;;;;;;;;;5037911;28;20060;-74
2023/08/07 07:35:07;;;;;;;3.00;1.80;;;;;;;;;;5047481;28;20617;-74
2023/08/07 07:37:33;;;;;;;3.60;2.35;;;;;;;;;;5053940;28;20463;-74
2023/08/07 07:39:59;;;;;;;6.47;2.20;;;;;;;;;;5047041;28;20025;-73
2023/08/07 07:42:25;;;;;;;5.13;2.10;;;;;;;;;;5052806;28;20087;-74
2023/08/07 07:44:51;;;;;;;4.88;2.38;;;;;;;;;;5058544;28;20043;-73
2023/08/07 07:47:18;;;;;;;2.58;1.88;;;;;;;;;;5064211;28;20063;-73
2023/08/07 07:49:46;;;;;;;4.32;2.10;;;;;;;;;;5051459;28;20464;-73
2023/08/07 07:52:12;;;;;;;8.02;2.83;;;;;;;;;;5054369;28;20053;-73
2023/08/07 07:54:38;;;;;;;2.05;1.73;;;;;;;;;;5053783;28;20017;-73
2023/08/07 07:57:05;;;;;;;6.80;2.30;;;;;;;;;;5056876;28;20033;-73
2023/08/07 07:59:31;;;;;;;7.07;2.10;;;;;;;;;;5052386;28;20052;-73
2023/08/07 08:01:57;;;;;;;7.35;2.22;;;;;;;;;;5058244;28;20028;-73
2023/08/07 08:04:23;;;;;;;4.22;2.05;;;;;;;;;;5055274;28;20107;-73
2023/08/07 08:06:49;;;;;;;4.18;2.00;;;;;;;;;;5055678;28;20560;-73
2023/08/07 08:09:15;;;;;;;2.40;1.70;;;;;;;;;;5053600;28;20035;-72
2023/08/07 08:11:41;;;;;;;2.45;2.10;;;;;;;;;;5048389;28;20048;-73
2023/08/07 08:14:08;;;;;;;2.15;1.80;;;;;;;;;;5053213;28;21819;-73
2023/08/07 08:16:34;;;;;;;3.63;2.38;;;;;;;;;;5052264;28;20369;-73
2023/08/07 08:19:02;;;;;;;7.28;2.05;;;;;;;;;;5049119;28;21003;-73
2023/08/07 08:21:30;;;;;;;2.30;1.95;;;;;;;;;;5050122;28;20871;-74
2023/08/07 08:23:56;;;;;;;3.45;2.00;;;;;;;;;;5049402;28;20112;-74
2023/08/07 08:26:22;;;;;;;4.65;2.65;;;;;;;;;;5047444;28;20049;-73
2023/08/07 08:28:48;;;;;;;3.40;1.85;;;;;;;;;;5044456;28;20051;-72
2023/08/07 08:31:14;;;;;;;4.18;2.00;;;;;;;;;;5049059;28;20033;-70
2023/08/07 08:33:40;;;;;;;4.72;2.20;;;;;;;;;;5056618;28;20440;-70
2023/08/07 08:36:07;;;;;;;3.20;1.88;;;;;;;;;;5064497;28;20773;-70
2023/08/07 08:38:33;;;;;;;3.05;2.38;;;;;;;;;;5055146;28;20032;-69
2023/08/07 08:41:03;;;;;;;3.28;1.90;;;;;;;;;;5060987;28;20033;-69
2023/08/07 08:43:35;;;;;;;3.67;1.95;;;;;;;;;;5071156;28;20043;-71
2023/08/07 08:46:02;;;;;;;3.33;2.10;;;;;;;;;;5055376;28;20052;-69
2023/08/07 08:48:30;;;;;;;5.13;1.90;;;;;;;;;;5054843;28;20029;-69
2023/08/07 08:50:56;;;;;;;4.85;2.00;;;;;;;;;;5059598;28;20029;-70
2023/08/07 08:53:23;;;;;;;2.40;2.20;;;;;;;;;;5071574;28;20029;-70
2023/08/07 08:55:50;;;;;;;2.28;2.08;;;;;;;;;;5066854;28;20031;-70
2023/08/07 08:58:17;;;;;;;1.75;1.65;;;;;;;;;;5053421;28;20035;-70
2023/08/07 09:00:43;;;;;;;4.13;1.80;;;;;;;;;;5054735;28;20028;-69
2023/08/07 09:03:10;;;;;;;3.33;1.65;;;;;;;;;;5061939;28;20472;-70
2023/08/07 09:05:37;;;;;;;2.40;1.92;;;;;;;;;;5058429;28;20112;-70
2023/08/07 09:08:04;;;;;;;2.85;1.80;;;;;;;;;;5053851;28;20040;-69
2023/08/07 09:10:31;;;;;;;1.65;1.50;;;;;;;;;;5057422;28;20020;-69
2023/08/07 09:13:05;;;;;;;2.88;2.10;;;;;;;;;;5059855;28;20539;-70
2023/08/07 09:15:32;;;;;;;1.65;1.55;;;;;;;;;;5060551;28;20025;-69
2023/08/07 09:17:59;;;;;;;1.50;1.40;;;;;;;;;;5058350;28;20163;-69
2023/08/07 09:20:28;;;;;;;3.22;1.88;;;;;;;;;;5065343;28;20029;-70
2023/08/07 09:22:54;;;;;;;4.50;1.83;;;;;;;;;;5047632;28;20033;-70
2023/08/07 09:25:28;;;;;;;2.70;1.58;;;;;;;;;;5048825;28;20133;-70
2023/08/07 09:27:56;;;;;;;2.00;1.75;;;;;;;;;;5050612;28;20105;-69
2023/08/07 09:30:26;;;;;;;1.48;1.38;;;;;;;;;;5063602;28;20028;-70
2023/08/07 09:32:52;;;;;;;3.33;1.65;;;;;;;;;;5058881;28;20020;-69
2023/08/07 09:35:21;;;;;;;2.10;1.75;;;;;;;;;;5050631;28;20071;-70
2023/08/07 09:37:47;;;;;;;2.55;1.73;;;;;;;;;;5056193;28;20045;-69
2023/08/07 09:40:15;;;;;;;1.70;1.60;;;;;;;;;;5068526;28;20020;-69
2023/08/07 09:42:42;;;;;;;1.45;1.35;;;;;;;;;;5052002;28;20043;-69
2023/08/07 09:45:20;;;;;;;2.53;1.80;;;;;;;;;;5056876;28;20316;-70
2023/08/07 09:47:49;;;;;;;1.60;1.50;;;;;;;;;;5060580;28;20024;-69
2023/08/07 09:50:18;;;;;;;1.77;1.58;;;;;;;;;;5057945;28;20032;-69
2023/08/07 09:52:49;;;;;;;2.75;2.03;;;;;;;;;;5048782;28;20060;-70
2023/08/07 09:55:18;;;;;;;2.20;1.92;;;;;;;;;;5054596;28;20028;-70
2023/08/07 09:57:44;;;;;;;1.85;1.50;;;;;;;;;;5055891;28;20016;-69
2023/08/07 10:00:11;;;;;;;1.92;1.50;;;;;;;;;;5051058;28;20110;-70
2023/08/07 10:02:37;;;;;;;1.52;1.42;;;;;;;;;;5059516;28;20025;-69
2023/08/07 10:05:05;;;;;;;1.20;1.20;;;;;;;;;;5059522;28;20115;-69
2023/08/07 10:07:31;;;;;;;1.35;1.25;;;;;;;;;;5049278;28;20106;-69
2023/08/07 10:10:00;;;;;;;3.00;1.38;;;;;;;;;;5056795;28;20070;-73
2023/08/07 10:12:29;;;;;;;2.40;1.50;;;;;;;;;;5059990;28;20028;-70
2023/08/07 10:14:55;;;;;;;1.77;1.60;;;;;;;;;;5066749;28;20039;-68
2023/08/07 10:17:25;;;;;;;2.03;1.80;;;;;;;;;;5063584;28;20036;-70
2023/08/07 10:19:54;;;;;;;1.80;1.70;;;;;;;;;;5067372;28;20503;-70
2023/08/07 10:22:20;;;;;;;2.58;1.60;;;;;;;;;;5059710;28;20055;-69
2023/08/07 10:24:49;;;;;;;1.67;1.58;;;;;;;;;;5063391;28;20025;-70
2023/08/07 10:27:17;;;;;;;3.03;1.70;;;;;;;;;;5061257;28;20036;-69
2023/08/07 10:29:44;;;;;;;2.95;2.20;;;;;;;;;;5055769;28;20036;-70
2023/08/07 10:32:11;;;;;;;4.78;2.10;;;;;;;;;;5051162;28;20029;-69
2023/08/07 10:34:40;;;;;;;5.57;2.00;;;;;;;;;;5062501;28;20056;-70
2023/08/07 10:37:09;;;;;;;2.38;2.10;;;;;;;;;;5058986;28;20435;-69
2023/08/07 10:39:35;;;;;;;2.58;1.73;;;;;;;;;;5052072;28;20029;-69
2023/08/07 10:42:01;;;;;;;2.30;1.85;;;;;;;;;;5063917;28;20480;-69
2023/08/07 10:44:32;;;;;;;2.50;1.88;;;;;;;;;;5053797;28;20378;-70
2023/08/07 10:46:58;;;;;;;2.33;1.73;;;;;;;;;;5060137;28;20054;-69
2023/08/07 10:49:34;;;;;;;2.65;1.60;;;;;;;;;;5053160;28;20420;-69
2023/08/07 10:52:18;;;;;;;3.08;2.33;;;;;;;;;;5060992;28;20029;-69
2023/08/07 10:54:49;;;;;;;3.42;1.63;;;;;;;;;;5066300;28;20039;-69
2023/08/07 10:57:16;;;;;;;2.00;1.73;;;;;;;;;;5067007;28;20036;-70
2023/08/07 10:59:52;;;;;;;2.60;2.40;;;;;;;;;;5066049;28;20561;-69
2023/08/07 11:02:27;;;;;;;1.60;1.50;;;;;;;;;;5055540;28;20087;-69
2023/08/07 11:04:56;;;;;;;2.90;1.80;;;;;;;;;;5058555;28;20609;-69
2023/08/07 11:07:26;;;;;;;1.98;1.70;;;;;;;;;;5062006;28;20024;-69
2023/08/07 11:09:52;;;;;;;2.55;2.15;;;;;;;;;;5063179;28;20028;-69
2023/08/07 11:12:20;;;;;;;3.22;1.70;;;;;;;;;;5060070;28;20279;-69
2023/08/07 11:14:46;;;;;;;4.50;2.28;;;;;;;;;;5053295;28;20036;-70
2023/08/07 11:17:13;;;;;;;5.93;2.75;;;;;;;;;;5055070;28;20025;-69
2023/08/07 11:19:39;;;;;;;3.25;2.20;;;;;;;;;;5039125;28;20491;-69
2023/08/07 11:22:06;;;;;;;3.92;1.95;;;;;;;;;;5058206;28;20029;-70
2023/08/07 11:24:32;;;;;;;4.03;2.00;;;;;;;;;;5057396;28;20101;-70
2023/08/07 11:26:58;;;;;;;2.58;2.10;;;;;;;;;;5057612;28;20130;-69
2023/08/07 11:29:25;;;;;;;3.35;1.90;;;;;;;;;;5059307;28;20108;-69
2023/08/07 11:31:54;;;;;;;3.47;2.17;;;;;;;;;;5056342;28;20028;-69
2023/08/07 11:34:21;;;;;;;2.95;2.50;;;;;;;;;;5058595;28;20033;-69
2023/08/07 11:36:48;;;;;;;5.65;2.00;;;;;;;;;;5062863;28;20025;-70
2023/08/07 11:39:14;;;;;;;2.00;1.80;;;;;;;;;;5051398;28;20021;-69
2023/08/07 11:41:40;;;;;;;3.45;2.20;;;;;;;;;;5069662;28;20062;-70
2023/08/07 11:44:09;;;;;;;2.60;2.00;;;;;;;;;;5059746;28;20119;-69
2023/08/07 11:46:36;;;;;;;1.60;1.50;;;;;;;;;;5062402;28;20044;-71
2023/08/07 11:49:04;;;;;;;2.30;1.80;;;;;;;;;;5059682;28;20021;-69
2023/08/07 11:51:30;;;;;;;1.90;1.70;;;;;;;;;;5067430;28;20032;-72
2023/08/07 11:53:58;;;;;;;2.63;2.42;;;;;;;;;;5061543;28;20421;-70
2023/08/07 11:56:25;;;;;;;2.35;1.92;;;;;;;;;;5061621;28;20559;-71
2023/08/07 11:58:52;;;;;;;3.28;2.00;;;;;;;;;;5058393;28;20107;-70
2023/08/07 12:01:20;;;;;;;1.70;1.60;;;;;;;;;;5066840;28;20324;-69
2023/08/07 12:03:54;;;;;;;5.32;1.95;;;;;;;;;;5062470;28;20039;-69
2023/08/07 12:06:21;;;;;;;2.00;1.80;;;;;;;;;;5062688;28;20024;-69
2023/08/07 12:08:49;;;;;;;1.55;1.40;;;;;;;;;;5071321;28;20036;-70
2023/08/07 12:11:15;;;;;;;2.30;1.80;;;;;;;;;;5055756;28;20090;-71
2023/08/07 12:13:42;;;;;;;1.75;1.65;;;;;;;;;;5049345;28;20530;-70
2023/08/07 12:16:09;;;;;;;1.77;1.67;;;;;;;;;;5052680;28;20032;-70
2023/08/07 12:18:37;;;;;;;1.67;1.45;;;;;;;;;;5048484;28;20036;-71
2023/08/07 12:21:06;;;;;;;1.80;1.70;;;;;;;;;;5049723;28;20166;-71
2023/08/07 12:23:35;;;;;;;1.50;1.40;;;;;;;;;;5053694;28;20020;-71
2023/08/07 12:26:01;;;;;;;1.92;1.75;;;;;;;;;;5055428;28;20032;-70
2023/08/07 12:28:27;;;;;;;1.98;1.60;;;;;;;;;;5058041;28;21121;-71
2023/08/07 12:30:54;;;;;;;2.38;1.50;;;;;;;;;;5047575;28;20380;-71
2023/08/07 12:33:20;;;;;;;1.70;1.55;;;;;;;;;;5052602;28;20115;-70
2023/08/07 12:35:46;;;;;;;1.80;1.50;;;;;;;;;;5050607;28;20056;-71
2023/08/07 12:38:17;;;;;;;2.10;1.77;;;;;;;;;;5057585;28;20078;-72
2023/08/07 12:40:43;;;;;;;2.00;1.80;;;;;;;;;;5056966;28;20032;-71
2023/08/07 12:43:09;;;;;;;1.90;1.70;;;;;;;;;;5060978;28;20032;-71
2023/08/07 12:45:35;;;;;;;1.80;1.70;;;;;;;;;;5049174;28;20345;-71
2023/08/07 12:48:01;;;;;;;3.58;1.80;;;;;;;;;;5051020;28;20111;-71
2023/08/07 12:50:28;;;;;;;1.75;1.65;;;;;;;;;;5056828;28;20125;-71
2023/08/07 12:52:54;;;;;;;2.97;2.30;;;;;;;;;;5057771;28;20116;-71
2023/08/07 12:55:20;;;;;;;2.33;1.60;;;;;;;;;;5061580;28;20028;-71
2023/08/07 12:57:48;;;;;;;1.55;1.45;;;;;;;;;;5050395;28;20029;-71
2023/08/07 13:00:15;;;;;;;1.88;1.70;;;;;;;;;;5050898;28;20072;-71
2023/08/07 13:02:42;;;;;;;2.33;1.70;;;;;;;;;;5054151;28;20247;-70
2023/08/07 13:05:12;;;;;;;2.17;1.90;;;;;;;;;;5058534;28;20067;-70
2023/08/07 13:07:38;;;;;;;2.70;1.85;;;;;;;;;;5061520;28;20032;-71
2023/08/07 13:10:06;;;;;;;1.70;1.60;;;;;;;;;;5056079;28;20047;-70
2023/08/07 13:12:34;;;;;;;1.80;1.70;;;;;;;;;;5047569;28;20025;-71
2023/08/07 13:15:00;;;;;;;2.75;1.83;;;;;;;;;;5058526;28;20081;-71
2023/08/07 13:17:26;;;;;;;2.45;1.90;;;;;;;;;;5053326;28;20028;-71
2023/08/07 13:19:52;;;;;;;2.20;1.80;;;;;;;;;;5052110;28;20036;-71
2023/08/07 13:22:18;;;;;;;3.00;1.75;;;;;;;;;;5060783;28;20040;-71
2023/08/07 13:24:45;;;;;;;2.42;1.80;;;;;;;;;;5074165;28;20036;-72
2023/08/07 13:27:11;;;;;;;2.38;1.70;;;;;;;;;;5048449;28;20089;-71
2023/08/07 13:29:37;;;;;;;1.98;1.60;;;;;;;;;;5060798;28;20786;-71
2023/08/07 13:32:09;;;;;;;2.95;1.83;;;;;;;;;;5062257;28;20025;-71
2023/08/07 13:34:35;;;;;;;2.25;1.70;;;;;;;;;;5060248;28;20032;-70
2023/08/07 13:37:01;;;;;;;1.60;1.50;;;;;;;;;;5056497;28;20036;-71
2023/08/07 13:39:28;;;;;;;2.33;1.70;;;;;;;;;;5057611;28;20025;-71
2023/08/07 13:41:54;;;;;;;2.45;1.50;;;;;;;;;;5063269;28;20025;-71
2023/08/07 13:44:22;;;;;;;2.15;1.70;;;;;;;;;;5053258;28;20029;-71
2023/08/07 13:46:48;;;;;;;2.10;1.60;;;;;;;;;;5064895;28;20386;-71
2023/08/07 13:49:14;;;;;;;2.50;1.90;;;;;;;;;;5059429;28;20406;-71
2023/08/07 13:51:44;;;;;;;2.35;2.10;;;;;;;;;;5065261;28;20499;-71
2023/08/07 13:54:10;;;;;;;2.53;1.88;;;;;;;;;;5053538;28;20095;-71
2023/08/07 13:56:36;;;;;;;1.70;1.60;;;;;;;;;;5056397;28;20040;-71
2023/08/07 13:59:02;;;;;;;2.03;1.77;;;;;;;;;;5055185;28;20100;-70
2023/08/07 14:01:28;;;;;;;5.90;2.20;;;;;;;;;;5059594;28;20381;-71
2023/08/07 14:03:54;;;;;;;4.95;2.53;;;;;;;;;;5062486;28;20483;-70
2023/08/07 14:06:21;;;;;;;3.10;1.70;;;;;;;;;;5056601;28;20557;-70
2023/08/07 14:08:47;;;;;;;2.58;1.80;;;;;;;;;;5059416;28;20496;-70
2023/08/07 14:11:14;;;;;;;2.35;1.75;;;;;;;;;;5061416;28;20470;-70
2023/08/07 14:13:41;;;;;;;2.15;2.00;;;;;;;;;;5065980;28;20476;-70
2023/08/07 14:16:07;;;;;;;1.85;1.75;;;;;;;;;;5049972;28;20029;-70
2023/08/07 14:18:33;;;;;;;1.80;1.70;;;;;;;;;;5057745;28;20016;-70
2023/08/07 14:21:00;;;;;;;2.40;1.88;;;;;;;;;;5049997;28;20137;-71
2023/08/07 14:23:26;;;;;;;2.30;1.85;;;;;;;;;;5057009;28;20036;-71
2023/08/07 14:25:52;;;;;;;4.03;2.10;;;;;;;;;;5058155;28;20472;-71
2023/08/07 14:28:19;;;;;;;1.70;1.60;;;;;;;;;;5050109;28;20029;-71
2023/08/07 14:30:45;;;;;;;4.35;1.95;;;;;;;;;;5051653;28;20032;-71
2023/08/07 14:33:11;;;;;;;1.70;1.60;;;;;;;;;;5056514;28;20029;-71
2023/08/07 14:35:37;;;;;;;2.00;1.70;;;;;;;;;;5072047;28;20392;-71
2023/08/07 14:38:03;;;;;;;1.95;1.75;;;;;;;;;;5061173;28;20237;-71
2023/08/07 14:40:30;;;;;;;2.63;2.30;;;;;;;;;;5062628;28;20032;-71